Time;durP1;ratioP1;P1;durP2;ratioP2;P2;SDS_P1;SDS_P2;PMS_P1;PMS_P2;Temp;Humidity;BMP_temperature;BMP_pressure;BME280_temperature;BME280_humidity;BME280_pressure;Samples;Min_cycle;Max_cycle;Signal;HPM_P1;HPM_P2
2023/01/31 00:01:11;;;;;;;5.32;1.35;;;;;9.00;102235.00;;;;5081461;28;20965;-73
2023/01/31 00:03:39;;;;;;;4.93;1.30;;;;;9.00;102229.00;;;;5067939;28;20249;-73
2023/01/31 00:06:16;;;;;;;3.88;1.00;;;;;8.90;102227.00;;;;5078498;28;20198;-73
2023/01/31 00:08:45;;;;;;;6.85;1.58;;;;;8.90;102224.00;;;;5082066;28;20214;-73
2023/01/31 00:11:13;;;;;;;4.13;0.85;;;;;8.90;102232.00;;;;5068296;28;20466;-73
2023/01/31 00:13:41;;;;;;;4.60;1.30;;;;;8.80;102234.00;;;;5068134;28;20202;-73
2023/01/31 00:16:09;;;;;;;2.78;1.08;;;;;8.80;102232.00;;;;5084651;28;20194;-73
2023/01/31 00:18:37;;;;;;;9.20;0.95;;;;;8.80;102222.00;;;;5078616;28;20203;-73
2023/01/31 00:21:06;;;;;;;7.18;1.58;;;;;8.70;102228.00;;;;5071846;28;20205;-73
2023/01/31 00:23:35;;;;;;;3.28;0.82;;;;;8.70;102223.00;;;;5076235;28;20592;-73
2023/01/31 00:26:13;;;;;;;3.05;0.80;;;;;8.60;102219.00;;;;5084138;28;20656;-73
2023/01/31 00:28:41;;;;;;;2.72;1.00;;;;;8.70;102211.00;;;;5078106;28;20205;-73
2023/01/31 00:31:10;;;;;;;4.03;1.30;;;;;8.60;102213.00;;;;5071434;28;20191;-73
2023/01/31 00:33:38;;;;;;;3.00;1.00;;;;;8.60;102205.00;;;;5081523;28;20226;-74
2023/01/31 00:36:07;;;;;;;5.28;1.33;;;;;8.60;102200.00;;;;5080185;28;20210;-73
2023/01/31 00:38:36;;;;;;;4.78;1.00;;;;;8.60;102195.00;;;;5069986;28;20683;-73
2023/01/31 00:41:04;;;;;;;3.45;1.08;;;;;8.50;102191.00;;;;5075019;28;20209;-73
2023/01/31 00:43:32;;;;;;;7.85;1.40;;;;;8.50;102188.00;;;;5086377;28;20218;-73
2023/01/31 00:45:59;;;;;;;1.40;0.77;;;;;8.50;102174.00;;;;5076623;28;20448;-73
2023/01/31 00:48:27;;;;;;;4.18;0.95;;;;;8.50;102156.00;;;;5073690;28;20687;-73
2023/01/31 00:50:54;;;;;;;1.50;0.50;;;;;8.50;102172.00;;;;5078984;28;20219;-73
2023/01/31 00:53:23;;;;;;;4.95;1.90;;;;;8.50;102170.00;;;;5069929;28;20199;-73
2023/01/31 00:55:52;;;;;;;4.43;1.40;;;;;8.40;102173.00;;;;5077621;28;20255;-73
2023/01/31 00:58:20;;;;;;;2.40;1.10;;;;;8.40;102165.00;;;;5084092;28;20206;-73
2023/01/31 01:00:48;;;;;;;3.67;1.08;;;;;8.40;102176.00;;;;5076596;28;20584;-73
2023/01/31 01:03:15;;;;;;;10.38;1.98;;;;;8.40;102168.00;;;;5089327;28;20564;-74
2023/01/31 01:05:42;;;;;;;5.80;1.75;;;;;8.40;102160.00;;;;5085111;28;20202;-73
2023/01/31 01:08:10;;;;;;;4.95;1.92;;;;;8.40;102163.00;;;;5089913;28;20600;-73
2023/01/31 01:10:37;;;;;;;6.30;1.63;;;;;8.40;102164.00;;;;5077963;28;20514;-73
2023/01/31 01:13:06;;;;;;;4.40;1.20;;;;;8.40;102167.00;;;;5069969;28;20207;-73
2023/01/31 01:15:36;;;;;;;9.02;1.80;;;;;8.40;102168.00;;;;5070246;28;20197;-73
2023/01/31 01:18:04;;;;;;;13.10;2.65;;;;;8.40;102162.00;;;;5079685;28;20194;-73
2023/01/31 01:20:31;;;;;;;5.07;1.30;;;;;8.40;102157.00;;;;5085594;28;20194;-73
2023/01/31 01:23:00;;;;;;;4.07;1.27;;;;;8.30;102150.00;;;;5084838;28;20237;-73
2023/01/31 01:25:27;;;;;;;3.33;1.23;;;;;8.40;102150.00;;;;5089663;28;20202;-74
2023/01/31 01:27:54;;;;;;;3.42;1.27;;;;;8.40;102147.00;;;;5089756;28;20198;-74
2023/01/31 01:30:23;;;;;;;2.80;1.08;;;;;8.30;102147.00;;;;5090766;28;20201;-74
2023/01/31 01:32:50;;;;;;;4.20;1.30;;;;;8.40;102150.00;;;;5071700;28;20244;-74
2023/01/31 01:35:18;;;;;;;3.38;1.02;;;;;8.30;102146.00;;;;5070152;28;20829;-74
2023/01/31 01:37:45;;;;;;;5.07;1.25;;;;;8.30;102148.00;;;;5071567;28;20842;-74
2023/01/31 01:40:13;;;;;;;2.90;1.00;;;;;8.30;102137.00;;;;5078791;28;20209;-73
2023/01/31 01:42:40;;;;;;;3.42;1.13;;;;;8.40;102152.00;;;;5084832;28;20202;-74
2023/01/31 01:45:15;;;;;;;4.60;1.33;;;;;8.30;102150.00;;;;5089582;28;20191;-74
2023/01/31 01:47:49;;;;;;;3.75;1.17;;;;;8.30;102146.00;;;;5089210;28;20225;-74
2023/01/31 01:50:21;;;;;;;5.22;1.17;;;;;8.30;102149.00;;;;5088377;28;20198;-74
2023/01/31 01:52:52;;;;;;;6.20;1.27;;;;;8.40;102155.00;;;;5088710;28;20206;-74
2023/01/31 01:55:25;;;;;;;14.25;2.08;;;;;8.40;102153.00;;;;5073465;28;20210;-74
2023/01/31 01:57:56;;;;;;;6.68;1.20;;;;;8.40;102155.00;;;;5083234;28;20281;-74
2023/01/31 02:00:27;;;;;;;2.75;0.90;;;;;8.50;102146.00;;;;5073024;28;20195;-74
2023/01/31 02:03:00;;;;;;;3.53;1.00;;;;;8.50;102152.00;;;;5069573;28;20199;-74
2023/01/31 02:05:31;;;;;;;3.13;1.27;;;;;8.50;102156.00;;;;5079134;28;20213;-74
2023/01/31 02:07:59;;;;;;;8.13;1.17;;;;;8.60;102158.00;;;;5071238;28;20202;-74
2023/01/31 02:10:31;;;;;;;3.65;1.15;;;;;8.60;102155.00;;;;5080896;28;20692;-74
2023/01/31 02:12:59;;;;;;;6.38;1.33;;;;;8.70;102155.00;;;;5082445;28;20537;-74
2023/01/31 02:15:26;;;;;;;5.07;1.33;;;;;8.70;102172.00;;;;5075055;28;20202;-74
2023/01/31 02:17:55;;;;;;;4.30;1.00;;;;;8.80;102163.00;;;;5074467;28;20191;-74
2023/01/31 02:20:46;;;;;;;4.53;1.60;;;;;8.70;102163.00;;;;5080825;28;20187;-74
2023/01/31 02:23:31;;;;;;;6.90;1.08;;;;;8.80;102159.00;;;;5088480;28;20226;-74
2023/01/31 02:26:39;;;;;;;3.85;0.98;;;;;8.80;102161.00;;;;5081410;28;20308;-74
2023/01/31 02:29:34;;;;;;;4.03;1.33;;;;;8.80;102160.00;;;;5073237;28;20201;-74
2023/01/31 02:32:40;;;;;;;3.63;1.30;;;;;8.90;102155.00;;;;5087776;28;20210;-74
2023/01/31 02:35:13;;;;;;;3.60;1.05;;;;;9.00;102151.00;;;;4991095;28;20201;-74
2023/01/31 02:37:49;;;;;;;3.20;1.10;;;;;9.00;102145.00;;;;5070470;28;20214;-74
2023/01/31 02:40:22;;;;;;;4.00;1.20;;;;;9.10;102153.00;;;;5083231;28;20197;-74
2023/01/31 02:42:58;;;;;;;8.15;1.40;;;;;9.10;102148.00;;;;5085648;28;20199;-74
2023/01/31 02:45:37;;;;;;;3.65;1.17;;;;;9.10;102135.00;;;;5082817;28;20197;-74
2023/01/31 02:48:16;;;;;;;4.00;1.05;;;;;9.20;102135.00;;;;5077863;28;20540;-74
2023/01/31 02:50:48;;;;;;;4.07;0.90;;;;;9.20;102120.00;;;;5069455;28;20767;-74
2023/01/31 02:53:20;;;;;;;5.30;1.48;;;;;9.30;102130.00;;;;5068657;28;20191;-74
2023/01/31 02:58:43;;;;;;;2.20;1.10;;;;;9.40;102127.00;;;;5068870;28;20210;-74
2023/01/31 03:01:15;;;;;;;7.45;1.85;;;;;9.40;102131.00;;;;5071964;28;20225;-74
2023/01/31 03:03:43;;;;;;;4.32;1.33;;;;;9.50;102136.00;;;;5087784;28;20214;-74
2023/01/31 03:06:43;;;;;;;3.35;1.23;;;;;9.40;102125.00;;;;5075503;28;20206;-74
2023/01/31 03:09:20;;;;;;;11.10;2.30;;;;;9.60;102131.00;;;;5066158;28;20198;-74
2023/01/31 03:11:54;;;;;;;5.65;1.70;;;;;9.60;102127.00;;;;5077479;28;20208;-74
2023/01/31 03:14:26;;;;;;;13.18;2.72;;;;;9.70;102119.00;;;;5082823;28;20194;-74
2023/01/31 03:19:55;;;;;;;5.45;1.60;;;;;9.80;102112.00;;;;5087163;28;20712;-74
2023/01/31 03:22:28;;;;;;;3.90;1.48;;;;;9.90;102106.00;;;;5087644;28;20194;-74
2023/01/31 03:24:56;;;;;;;6.28;2.22;;;;;9.90;102106.00;;;;5075089;28;20217;-74
2023/01/31 03:27:24;;;;;;;6.13;2.15;;;;;10.00;102098.00;;;;5081500;28;20198;-74
2023/01/31 03:29:53;;;;;;;7.82;2.38;;;;;10.00;102093.00;;;;5078676;28;20668;-74
2023/01/31 03:32:26;;;;;;;9.85;3.35;;;;;10.10;102095.00;;;;5069122;28;20210;-74
2023/01/31 03:34:55;;;;;;;6.13;2.22;;;;;10.10;102097.00;;;;5068831;28;20198;-74
2023/01/31 03:37:37;;;;;;;6.97;2.58;;;;;10.10;102094.00;;;;5084757;28;20671;-74
2023/01/31 03:40:09;;;;;;;6.10;2.75;;;;;10.20;102094.00;;;;5083827;28;20194;-74
2023/01/31 03:42:45;;;;;;;6.90;1.98;;;;;10.20;102091.00;;;;5076112;28;20198;-73
2023/01/31 03:45:17;;;;;;;6.43;2.70;;;;;10.30;102079.00;;;;5071907;28;20594;-72
2023/01/31 03:47:48;;;;;;;6.30;2.13;;;;;10.40;102084.00;;;;5077598;28;20205;-72
2023/01/31 03:50:21;;;;;;;6.57;2.42;;;;;10.40;102084.00;;;;5087519;28;20194;-72
2023/01/31 03:52:52;;;;;;;7.47;2.47;;;;;10.40;102071.00;;;;5089451;28;20596;-73
2023/01/31 03:55:23;;;;;;;5.60;2.42;;;;;10.40;102076.00;;;;5090797;28;20694;-73
2023/01/31 03:57:54;;;;;;;5.72;2.80;;;;;10.50;102070.00;;;;5076159;28;20241;-73
2023/01/31 04:00:24;;;;;;;7.63;2.65;;;;;10.50;102064.00;;;;5080582;28;21021;-73
2023/01/31 04:03:00;;;;;;;5.57;2.28;;;;;10.50;102080.00;;;;5091453;28;20217;-72
2023/01/31 04:05:31;;;;;;;11.63;3.50;;;;;10.60;102072.00;;;;5091700;28;20222;-74
2023/01/31 04:07:58;;;;;;;10.45;3.20;;;;;10.60;102066.00;;;;5074580;28;20699;-74
2023/01/31 04:10:26;;;;;;;7.00;2.58;;;;;10.60;102069.00;;;;5071020;28;20232;-73
2023/01/31 04:12:54;;;;;;;7.20;3.05;;;;;10.60;102067.00;;;;5078284;28;20201;-73
2023/01/31 04:15:21;;;;;;;8.63;3.92;;;;;10.70;102067.00;;;;5090689;28;20790;-73
2023/01/31 04:17:48;;;;;;;8.98;3.00;;;;;10.70;102066.00;;;;5076038;28;20791;-73
2023/01/31 04:20:17;;;;;;;5.45;2.97;;;;;10.70;102055.00;;;;5071342;28;20187;-73
2023/01/31 04:22:46;;;;;;;7.60;2.45;;;;;10.70;102055.00;;;;5083213;28;20663;-74
2023/01/31 04:25:13;;;;;;;10.18;3.15;;;;;10.70;102051.00;;;;5086632;28;20233;-73
2023/01/31 04:27:40;;;;;;;9.20;3.33;;;;;10.70;102047.00;;;;5088600;28;20202;-74
2023/01/31 04:30:09;;;;;;;10.30;3.20;;;;;10.70;102055.00;;;;5087840;28;20210;-73
2023/01/31 04:32:36;;;;;;;6.85;2.83;;;;;10.70;102056.00;;;;5069238;28;20195;-74
2023/01/31 04:35:05;;;;;;;10.05;3.75;;;;;10.70;102050.00;;;;5076923;28;20198;-74
2023/01/31 04:37:32;;;;;;;7.63;2.78;;;;;10.70;102059.00;;;;5087131;28;20206;-73
2023/01/31 04:40:01;;;;;;;10.30;3.05;;;;;10.70;102055.00;;;;5079628;28;20205;-73
2023/01/31 04:42:28;;;;;;;8.85;3.33;;;;;10.70;102046.00;;;;5085143;28;20201;-74
2023/01/31 04:44:55;;;;;;;8.07;3.15;;;;;10.70;102039.00;;;;5073597;28;20221;-73
2023/01/31 04:47:23;;;;;;;10.88;3.35;;;;;10.80;102044.00;;;;5077712;28;20226;-74
2023/01/31 04:49:50;;;;;;;7.20;3.17;;;;;10.80;102040.00;;;;5085501;28;20202;-74
2023/01/31 04:52:17;;;;;;;11.50;2.97;;;;;10.80;102038.00;;;;5074879;28;20269;-74
2023/01/31 04:54:44;;;;;;;7.10;3.60;;;;;10.80;102028.00;;;;5074558;28;20203;-73
2023/01/31 04:57:13;;;;;;;10.88;2.85;;;;;10.80;102028.00;;;;5083097;28;20198;-73
2023/01/31 04:59:40;;;;;;;7.60;3.72;;;;;10.90;102011.00;;;;5088889;28;20217;-73
2023/01/31 05:02:08;;;;;;;6.10;2.70;;;;;10.90;102022.00;;;;5068918;28;20210;-73
2023/01/31 05:04:35;;;;;;;7.90;3.42;;;;;10.90;102026.00;;;;5081072;28;20241;-74
2023/01/31 05:07:02;;;;;;;9.93;3.50;;;;;10.90;102025.00;;;;5088270;28;20198;-73
2023/01/31 05:09:29;;;;;;;8.60;3.65;;;;;10.90;102017.00;;;;5089128;28;20201;-73
2023/01/31 05:11:57;;;;;;;9.27;3.00;;;;;11.00;102016.00;;;;5089609;28;20198;-73
2023/01/31 05:14:26;;;;;;;9.60;3.58;;;;;11.00;102019.00;;;;5071299;28;20202;-73
2023/01/31 05:16:53;;;;;;;11.63;3.30;;;;;11.00;102013.00;;;;5084320;28;20612;-74
2023/01/31 05:19:20;;;;;;;9.15;3.55;;;;;11.00;102013.00;;;;5078888;28;20210;-73
2023/01/31 05:21:58;;;;;;;6.07;2.80;;;;;11.00;102007.00;;;;5087405;28;20519;-74
2023/01/31 05:24:26;;;;;;;9.23;3.20;;;;;11.00;102006.00;;;;5076442;28;20234;-74
2023/01/31 05:26:57;;;;;;;11.20;3.58;;;;;11.00;102002.00;;;;5068076;28;20526;-74
2023/01/31 05:29:26;;;;;;;7.57;3.20;;;;;11.00;102005.00;;;;5068454;28;20583;-74
2023/01/31 05:31:54;;;;;;;9.07;3.30;;;;;11.00;102007.00;;;;5069001;28;20726;-74
2023/01/31 05:34:24;;;;;;;8.13;3.35;;;;;11.00;102010.00;;;;5070844;28;20209;-74
2023/01/31 05:36:51;;;;;;;7.50;3.33;;;;;11.00;102005.00;;;;5080724;28;20668;-74
2023/01/31 05:39:18;;;;;;;8.85;3.35;;;;;11.00;101999.00;;;;5088655;28;20198;-74
2023/01/31 05:41:45;;;;;;;11.10;3.72;;;;;11.00;101998.00;;;;5088652;28;20671;-74
2023/01/31 05:44:13;;;;;;;6.00;2.92;;;;;11.10;102011.00;;;;5080764;28;20223;-74
2023/01/31 05:46:42;;;;;;;9.30;2.70;;;;;11.10;102008.00;;;;5045212;28;1047549;-74
2023/01/31 05:49:09;;;;;;;4.32;2.45;;;;;11.10;102011.00;;;;5081356;28;20214;-74
2023/01/31 05:51:36;;;;;;;7.35;3.00;;;;;11.10;102005.00;;;;5082541;28;20217;-74
2023/01/31 05:54:04;;;;;;;7.30;2.78;;;;;11.10;102007.00;;;;5088387;28;20210;-74
2023/01/31 05:56:31;;;;;;;8.30;3.05;;;;;11.10;102000.00;;;;5072734;28;20203;-74
2023/01/31 05:59:01;;;;;;;7.45;2.47;;;;;11.10;101994.00;;;;5069590;28;20198;-74
2023/01/31 06:01:29;;;;;;;11.20;2.97;;;;;11.10;102010.00;;;;5080326;28;20711;-74
2023/01/31 06:03:57;;;;;;;9.52;3.22;;;;;11.10;102001.00;;;;5090161;28;20281;-74
2023/01/31 06:06:25;;;;;;;8.13;3.30;;;;;11.20;102009.00;;;;5087000;28;20198;-74
2023/01/31 06:08:52;;;;;;;8.68;3.20;;;;;11.20;102011.00;;;;5071595;28;20214;-74
2023/01/31 06:11:19;;;;;;;8.18;3.20;;;;;11.20;101998.00;;;;5070636;28;20195;-74
2023/01/31 06:13:48;;;;;;;7.13;3.15;;;;;11.20;101996.00;;;;5089980;28;20678;-74
2023/01/31 06:16:15;;;;;;;7.65;2.83;;;;;11.20;101987.00;;;;5087511;28;20217;-74
2023/01/31 06:18:42;;;;;;;7.22;2.63;;;;;11.20;101982.00;;;;5083523;28;20695;-74
2023/01/31 06:21:11;;;;;;;9.20;3.67;;;;;11.20;101970.00;;;;5088538;28;20700;-74
2023/01/31 06:23:39;;;;;;;7.38;2.75;;;;;11.30;101971.00;;;;5070269;28;20607;-74
2023/01/31 06:26:06;;;;;;;7.65;3.05;;;;;11.30;101981.00;;;;5069168;28;20967;-74
2023/01/31 06:28:33;;;;;;;7.65;2.40;;;;;11.30;101976.00;;;;5072849;28;20691;-74
2023/01/31 06:31:07;;;;;;;8.52;3.20;;;;;11.20;101986.00;;;;5087980;28;20198;-74
2023/01/31 06:33:34;;;;;;;7.60;2.15;;;;;11.30;101976.00;;;;5088341;28;20201;-74
2023/01/31 06:36:02;;;;;;;7.10;2.42;;;;;11.30;101983.00;;;;5068883;28;20191;-74
2023/01/31 06:38:30;;;;;;;7.20;2.90;;;;;11.30;101974.00;;;;5084737;28;20202;-74
2023/01/31 06:40:58;;;;;;;7.15;2.83;;;;;11.30;101980.00;;;;5072808;28;20564;-74
2023/01/31 06:43:25;;;;;;;5.97;2.72;;;;;11.30;101967.00;;;;5068699;28;20214;-74
2023/01/31 06:45:52;;;;;;;11.07;2.60;;;;;11.30;101965.00;;;;5068430;28;20249;-74
2023/01/31 06:48:20;;;;;;;5.85;2.35;;;;;11.30;101951.00;;;;5083329;28;20367;-75
2023/01/31 06:50:47;;;;;;;7.78;2.63;;;;;11.40;101951.00;;;;5081465;28;20289;-74
2023/01/31 06:53:14;;;;;;;7.38;2.47;;;;;11.40;101946.00;;;;5084549;28;20197;-73
2023/01/31 06:55:43;;;;;;;6.85;2.40;;;;;11.30;101944.00;;;;5073401;28;20199;-74
2023/01/31 06:58:10;;;;;;;6.20;2.92;;;;;11.40;101941.00;;;;5074063;28;20195;-74
2023/01/31 07:00:37;;;;;;;6.60;2.45;;;;;11.40;101946.00;;;;5079175;28;20645;-75
2023/01/31 07:03:05;;;;;;;14.38;3.00;;;;;11.40;101943.00;;;;5076728;28;20747;-75
2023/01/31 07:05:32;;;;;;;5.15;2.40;;;;;11.40;101934.00;;;;5081084;28;20229;-75
2023/01/31 07:07:59;;;;;;;9.30;2.97;;;;;11.40;101936.00;;;;5079502;28;20205;-75
2023/01/31 07:10:26;;;;;;;9.00;2.67;;;;;11.40;101928.00;;;;5078531;28;20565;-75
2023/01/31 07:12:55;;;;;;;11.60;3.22;;;;;11.40;101924.00;;;;5080675;28;20194;-76
2023/01/31 07:15:22;;;;;;;12.23;3.28;;;;;11.40;101926.00;;;;5081736;28;20194;-75
2023/01/31 07:17:49;;;;;;;10.43;2.75;;;;;11.40;101909.00;;;;5077850;28;20206;-75
2023/01/31 07:20:17;;;;;;;7.20;2.90;;;;;11.40;101907.00;;;;5077085;28;20195;-75
2023/01/31 07:22:44;;;;;;;8.50;3.00;;;;;11.40;101919.00;;;;5068210;28;20206;-75
2023/01/31 07:25:12;;;;;;;4.78;2.47;;;;;11.40;101914.00;;;;5068083;28;20234;-75
2023/01/31 07:27:39;;;;;;;9.18;3.58;;;;;11.40;101917.00;;;;5078049;28;20668;-75
2023/01/31 07:30:09;;;;;;;5.18;2.60;;;;;11.40;101926.00;;;;5074971;28;20203;-74
2023/01/31 07:32:36;;;;;;;7.95;2.90;;;;;11.50;101925.00;;;;5076993;28;20199;-75
2023/01/31 07:35:04;;;;;;;11.27;3.58;;;;;11.50;101930.00;;;;5080631;28;20198;-75
2023/01/31 07:37:31;;;;;;;7.22;2.83;;;;;11.50;101931.00;;;;5078986;28;20198;-75
2023/01/31 07:39:58;;;;;;;12.73;3.17;;;;;11.50;101928.00;;;;5080936;28;20195;-75
2023/01/31 07:42:27;;;;;;;7.75;3.08;;;;;11.50;101916.00;;;;5081172;28;20191;-75
2023/01/31 07:44:54;;;;;;;6.90;2.63;;;;;11.50;101912.00;;;;5073509;28;20217;-75
2023/01/31 07:47:23;;;;;;;8.90;3.08;;;;;11.50;101917.00;;;;5073260;28;20229;-75
2023/01/31 07:49:50;;;;;;;7.13;2.72;;;;;11.50;101920.00;;;;5073183;28;20191;-74
2023/01/31 07:52:18;;;;;;;8.38;3.78;;;;;11.60;101921.00;;;;5074023;28;21472;-75
2023/01/31 07:54:45;;;;;;;10.48;3.35;;;;;11.60;101920.00;;;;5077115;28;20194;-75
2023/01/31 07:57:13;;;;;;;7.75;3.05;;;;;11.60;101916.00;;;;5079770;28;20225;-75
2023/01/31 07:59:40;;;;;;;9.40;3.53;;;;;11.60;101909.00;;;;5079430;28;20255;-75
2023/01/31 08:04:57;;;;;;;4.50;2.80;;;;;11.60;101886.00;;;;5075180;28;20295;-75
2023/01/31 08:07:26;;;;;;;7.75;2.83;;;;;11.70;101897.00;;;;5074747;28;20187;-75
2023/01/31 08:09:53;;;;;;;10.70;3.53;;;;;11.70;101887.00;;;;5077790;28;20199;-75
2023/01/31 08:12:20;;;;;;;5.07;2.50;;;;;11.70;101893.00;;;;5073969;28;20206;-75
2023/01/31 08:14:48;;;;;;;6.93;2.70;;;;;11.70;101895.00;;;;5077255;28;20191;-75
2023/01/31 08:17:15;;;;;;;6.35;3.05;;;;;11.80;101896.00;;;;5075043;28;20213;-75
2023/01/31 08:19:42;;;;;;;5.72;2.78;;;;;11.80;101894.00;;;;5078342;28;20203;-75
2023/01/31 08:22:11;;;;;;;8.32;2.67;;;;;11.80;101884.00;;;;5079315;28;20640;-75
2023/01/31 08:24:38;;;;;;;5.38;2.75;;;;;11.80;101878.00;;;;5075246;28;20204;-75
2023/01/31 08:27:05;;;;;;;7.10;2.80;;;;;11.80;101873.00;;;;5072915;28;20679;-75
2023/01/31 08:29:33;;;;;;;7.90;2.97;;;;;11.80;101872.00;;;;5075647;28;20199;-75
2023/01/31 08:32:01;;;;;;;8.70;2.83;;;;;11.80;101864.00;;;;5086704;28;20206;-75
2023/01/31 08:34:29;;;;;;;7.25;2.47;;;;;11.80;101873.00;;;;5073941;28;20253;-74
2023/01/31 08:36:56;;;;;;;8.18;2.97;;;;;11.80;101859.00;;;;5079867;28;20198;-74
2023/01/31 08:39:25;;;;;;;5.45;2.30;;;;;11.90;101858.00;;;;5086932;28;20569;-74
2023/01/31 08:41:52;;;;;;;6.30;1.88;;;;;11.90;101841.00;;;;5080906;28;20679;-74
2023/01/31 08:44:19;;;;;;;7.75;2.42;;;;;11.90;101842.00;;;;5075624;28;20202;-74
2023/01/31 08:46:46;;;;;;;7.70;2.28;;;;;12.00;101848.00;;;;5077111;28;20692;-74
2023/01/31 08:49:14;;;;;;;5.95;2.45;;;;;12.00;101844.00;;;;5071224;28;20210;-74
2023/01/31 08:51:41;;;;;;;14.05;2.97;;;;;12.00;101843.00;;;;5089473;28;20611;-74
2023/01/31 08:54:11;;;;;;;6.43;2.50;;;;;12.00;101855.00;;;;5091614;28;20222;-74
2023/01/31 08:56:40;;;;;;;8.15;2.38;;;;;12.00;101858.00;;;;5076799;28;20199;-74
2023/01/31 08:59:07;;;;;;;5.22;2.38;;;;;12.10;101872.00;;;;5070637;28;20202;-74
2023/01/31 09:01:35;;;;;;;7.63;2.85;;;;;12.10;101876.00;;;;5083129;28;20191;-74
2023/01/31 09:04:02;;;;;;;4.72;2.33;;;;;12.10;101874.00;;;;5089615;28;20252;-75
2023/01/31 09:06:29;;;;;;;6.63;2.60;;;;;12.10;101875.00;;;;5089747;28;20229;-75
2023/01/31 09:08:58;;;;;;;4.25;2.38;;;;;12.20;101875.00;;;;5079769;28;20195;-74
2023/01/31 09:11:28;;;;;;;6.40;1.85;;;;;12.20;101874.00;;;;5070444;28;20668;-74
2023/01/31 09:13:57;;;;;;;5.95;1.95;;;;;12.20;101862.00;;;;5082382;28;20209;-74
2023/01/31 09:16:25;;;;;;;4.22;2.13;;;;;12.20;101863.00;;;;5090721;28;20667;-75
2023/01/31 09:18:52;;;;;;;6.35;2.03;;;;;12.30;101869.00;;;;5082920;28;20190;-74
2023/01/31 09:21:21;;;;;;;9.40;2.30;;;;;12.30;101860.00;;;;5071820;28;20207;-74
2023/01/31 09:23:54;;;;;;;4.45;2.00;;;;;12.30;101852.00;;;;5082125;28;20206;-74
2023/01/31 09:26:21;;;;;;;11.43;2.70;;;;;12.30;101850.00;;;;5081470;28;20215;-74
2023/01/31 09:28:49;;;;;;;8.15;2.58;;;;;12.30;101856.00;;;;5073841;28;20214;-75
2023/01/31 09:31:20;;;;;;;5.15;2.85;;;;;12.30;101847.00;;;;5078606;28;20198;-75
2023/01/31 09:33:48;;;;;;;11.30;2.78;;;;;12.40;101855.00;;;;5090091;28;20663;-75
2023/01/31 09:36:16;;;;;;;11.63;3.22;;;;;12.40;101856.00;;;;5080537;28;20683;-75
2023/01/31 09:38:44;;;;;;;7.00;2.83;;;;;12.40;101840.00;;;;5082652;28;20202;-75
2023/01/31 09:41:19;;;;;;;5.63;2.38;;;;;12.40;101820.00;;;;5089664;28;20571;-75
2023/01/31 09:43:52;;;;;;;8.13;2.60;;;;;12.40;101831.00;;;;5089942;28;20201;-76
2023/01/31 09:46:24;;;;;;;8.55;2.47;;;;;12.40;101838.00;;;;5070855;28;20226;-75
2023/01/31 09:48:54;;;;;;;7.25;2.50;;;;;12.40;101842.00;;;;5073127;28;20206;-75
2023/01/31 09:51:23;;;;;;;8.88;2.80;;;;;12.50;101832.00;;;;5071844;28;20226;-75
2023/01/31 09:53:51;;;;;;;4.50;2.42;;;;;12.50;101850.00;;;;5077254;28;20229;-75
2023/01/31 09:56:24;;;;;;;5.35;2.55;;;;;12.50;101841.00;;;;5069271;28;20199;-75
2023/01/31 09:58:59;;;;;;;6.43;2.25;;;;;12.50;101843.00;;;;5080250;28;20190;-75
2023/01/31 10:01:38;;;;;;;7.65;2.85;;;;;12.50;101832.00;;;;5076716;28;20237;-75
2023/01/31 10:04:20;;;;;;;8.65;2.95;;;;;12.50;101832.00;;;;5084005;28;20198;-75
2023/01/31 10:06:54;;;;;;;6.40;2.80;;;;;12.50;101847.00;;;;5081832;28;20669;-75
2023/01/31 10:09:28;;;;;;;9.43;2.67;;;;;12.50;101849.00;;;;5077511;28;20190;-74
2023/01/31 10:11:59;;;;;;;9.13;3.65;;;;;12.60;101843.00;;;;5069020;28;20703;-75
2023/01/31 10:14:32;;;;;;;8.23;2.53;;;;;12.60;101845.00;;;;5068563;28;20203;-75
2023/01/31 10:17:07;;;;;;;7.25;2.65;;;;;12.50;101833.00;;;;5069791;28;20199;-75
2023/01/31 10:19:45;;;;;;;7.88;2.45;;;;;12.50;101852.00;;;;5081711;28;20212;-75
2023/01/31 10:22:18;;;;;;;7.38;2.42;;;;;12.60;101848.00;;;;5071852;28;20195;-74
2023/01/31 10:24:49;;;;;;;8.35;2.80;;;;;12.60;101825.00;;;;5083450;28;20249;-74
2023/01/31 10:27:26;;;;;;;9.23;3.42;;;;;12.60;101825.00;;;;5079735;28;20222;-75
2023/01/31 10:29:58;;;;;;;9.63;2.92;;;;;12.60;101823.00;;;;5078252;28;20193;-75
2023/01/31 10:32:31;;;;;;;7.85;2.55;;;;;12.70;101830.00;;;;5075202;28;20659;-75
2023/01/31 10:35:03;;;;;;;10.07;3.47;;;;;12.70;101813.00;;;;5071496;28;20199;-75
2023/01/31 10:37:37;;;;;;;5.95;2.25;;;;;12.80;101834.00;;;;5083197;28;20301;-75
2023/01/31 10:40:13;;;;;;;5.75;1.92;;;;;12.80;101823.00;;;;5086747;28;20201;-75
2023/01/31 10:42:45;;;;;;;8.38;2.78;;;;;12.80;101817.00;;;;5088278;28;20198;-76
2023/01/31 10:45:17;;;;;;;9.48;2.33;;;;;12.80;101813.00;;;;5083289;28;20206;-74
2023/01/31 10:47:51;;;;;;;7.07;2.53;;;;;12.80;101811.00;;;;5087156;28;20328;-74
2023/01/31 10:50:29;;;;;;;5.28;2.13;;;;;12.90;101801.00;;;;5080718;28;20203;-74
2023/01/31 10:53:13;;;;;;;7.32;2.38;;;;;12.80;101805.00;;;;5071040;28;20202;-74
2023/01/31 10:55:52;;;;;;;7.00;2.83;;;;;12.90;101805.00;;;;5088553;28;20578;-75
2023/01/31 10:58:22;;;;;;;5.05;2.10;;;;;13.00;101796.00;;;;5085065;28;20205;-75
2023/01/31 11:00:50;;;;;;;6.55;1.83;;;;;13.00;101807.00;;;;5073737;28;20669;-75
2023/01/31 11:03:19;;;;;;;6.57;1.90;;;;;13.00;101790.00;;;;5070599;28;20209;-74
2023/01/31 11:05:49;;;;;;;6.28;2.05;;;;;13.00;101798.00;;;;5083031;28;20213;-74
2023/01/31 11:08:33;;;;;;;7.53;2.47;;;;;12.90;101803.00;;;;5078240;28;20207;-74
2023/01/31 11:11:07;;;;;;;6.47;2.28;;;;;13.00;101797.00;;;;5067101;28;20194;-74
2023/01/31 11:13:34;;;;;;;7.80;1.92;;;;;13.10;101799.00;;;;5065832;28;20751;-75
2023/01/31 11:16:03;;;;;;;7.00;2.30;;;;;13.10;101797.00;;;;5077668;28;20202;-74
2023/01/31 11:18:35;;;;;;;6.90;2.17;;;;;13.10;101805.00;;;;5076265;28;20217;-75
2023/01/31 11:21:03;;;;;;;3.03;1.20;;;;;13.10;101805.00;;;;5066227;28;20214;-75
2023/01/31 11:23:33;;;;;;;5.32;1.60;;;;;13.10;101804.00;;;;5080637;28;20202;-74
2023/01/31 11:26:01;;;;;;;7.40;2.15;;;;;13.20;101808.00;;;;5088453;28;20217;-74
2023/01/31 11:28:36;;;;;;;10.35;1.92;;;;;13.10;101804.00;;;;5087424;28;20194;-74
2023/01/31 11:31:06;;;;;;;2.83;1.38;;;;;13.20;101805.00;;;;5068095;28;20644;-74
2023/01/31 11:33:44;;;;;;;10.27;2.35;;;;;13.20;101800.00;;;;5067704;28;20203;-74
2023/01/31 11:36:14;;;;;;;6.95;1.90;;;;;13.20;101798.00;;;;5085115;28;20208;-72
2023/01/31 11:38:42;;;;;;;8.32;1.80;;;;;13.20;101798.00;;;;5086830;28;20194;-72
2023/01/31 11:41:27;;;;;;;6.57;1.85;;;;;13.10;101791.00;;;;5077456;28;20191;-72
2023/01/31 11:44:11;;;;;;;4.32;1.50;;;;;13.20;101789.00;;;;5069132;28;20206;-72
2023/01/31 11:46:44;;;;;;;8.65;1.83;;;;;13.30;101786.00;;;;5067390;28;20226;-75
2023/01/31 11:49:17;;;;;;;5.93;2.00;;;;;13.30;101782.00;;;;5067459;28;20199;-75
2023/01/31 11:51:45;;;;;;;9.68;2.38;;;;;13.30;101780.00;;;;5072378;28;20592;-75
2023/01/31 11:54:18;;;;;;;6.13;1.60;;;;;13.30;101776.00;;;;5086892;28;20186;-75
2023/01/31 11:56:46;;;;;;;6.72;1.55;;;;;13.30;101779.00;;;;5087054;28;20206;-75
2023/01/31 11:59:19;;;;;;;7.82;1.50;;;;;13.30;101774.00;;;;5087668;28;20206;-75
2023/01/31 12:01:50;;;;;;;6.50;2.15;;;;;13.30;101774.00;;;;5076720;28;20213;-75
2023/01/31 12:04:23;;;;;;;7.90;2.38;;;;;13.30;101771.00;;;;5086886;28;20202;-75
2023/01/31 12:07:00;;;;;;;4.32;1.48;;;;;13.30;101762.00;;;;5087447;28;20232;-75
2023/01/31 12:09:31;;;;;;;5.10;1.38;;;;;13.40;101760.00;;;;5087591;28;20682;-75
2023/01/31 12:12:02;;;;;;;6.53;1.92;;;;;13.40;101773.00;;;;5087231;28;20194;-75
2023/01/31 12:14:42;;;;;;;4.25;1.77;;;;;13.30;101765.00;;;;5083887;28;20203;-75
2023/01/31 12:17:15;;;;;;;4.68;1.83;;;;;13.40;101769.00;;;;5071385;28;20191;-75
2023/01/31 12:19:58;;;;;;;6.25;1.80;;;;;13.30;101762.00;;;;5071568;28;20214;-76
2023/01/31 12:22:31;;;;;;;7.82;1.60;;;;;13.40;101757.00;;;;5070966;28;20205;-76
2023/01/31 12:25:08;;;;;;;6.05;1.77;;;;;13.40;101748.00;;;;5079056;28;20187;-76
2023/01/31 12:27:53;;;;;;;4.75;2.13;;;;;13.40;101744.00;;;;5089901;28;20540;-76
2023/01/31 12:30:33;;;;;;;7.25;1.83;;;;;13.40;101738.00;;;;5077114;28;20285;-76
2023/01/31 12:33:15;;;;;;;5.78;1.77;;;;;13.40;101738.00;;;;5082912;28;20541;-76